WetterOnline ( http://www.wetteronline.de )

Wetter aktuell Ostseebad Wustrow

Aktuelles Wetter: Barth (7m)

6-stündlich | Neueste Meldungen
Ortszeit Temperatur Wetter
Di, 19.03. 19:00 2.7° C wolkenlos
Di, 19.03. 13:00 6.9° C leicht bewölkt
Di, 19.03. 7:00 4.3° C bedeckt
Di, 19.03. 1:00 4.8° C bedeckt
Mo, 18.03. 19:00 3.9° C leichter Regen
Mo, 18.03. 13:00 6.8° C bedeckt
Mo, 18.03. 7:00 4.8° C bewölkt
Mo, 18.03. 1:00 4.4° C leicht bewölkt
Ortszeit Temperatur Wetter
Mi, 20.03. 0:30 -1.7° C fast wolkenlos
Mi, 20.03. 0:20 -1.7° C fast wolkenlos
Mi, 20.03. 0:10 -2.0° C fast wolkenlos
Mi, 20.03. 0:00 -2.1° C wolkenlos
Di, 19.03. 23:50 -2.1° C wolkenlos
Di, 19.03. 23:40 -2.4° C wolkenlos
Di, 19.03. 23:30 -2.6° C wolkenlos
Di, 19.03. 23:00 -2.5° C leicht bewölkt
Di, 19.03. 22:30 -1.8° C wolkig
Di, 19.03. 22:00 -1.7° C leicht bewölkt
Di, 19.03. 21:30 -1.0° C wolkenlos
Ortszeit Relative Feuchte Sichtweite
Di, 19.03. 19:00 81% 40 km
Di, 19.03. 13:00 62% 30 km
Di, 19.03. 7:00 83% 21 km
Di, 19.03. 1:00 81% 22 km
Mo, 18.03. 19:00 85% 40 km
Mo, 18.03. 13:00 72% 25 km
Mo, 18.03. 7:00 76% 55 km
Mo, 18.03. 1:00 72% 65 km
Ortszeit Relative Feuchte Sichtweite
Mi, 20.03. 0:30 92% 23 km
Mi, 20.03. 0:20 92% -
Mi, 20.03. 0:10 92% -
Mi, 20.03. 0:00 94% 22 km
Di, 19.03. 23:50 94% -
Di, 19.03. 23:40 94% -
Di, 19.03. 23:30 94% 25 km
Di, 19.03. 23:00 94% 20 km
Di, 19.03. 22:30 91% 24 km
Di, 19.03. 22:00 91% 16 km
Di, 19.03. 21:30 91% 22 km
Ortszeit Niederschlagsmenge Niederschlagsart
Di, 19.03. 19:00 0.0 l/m2 in 12 Std. -
Di, 19.03. 13:00 0.0 l/m2 in 6 Std. -
Di, 19.03. 7:00 0.2 l/m2 in 12 Std. -
Di, 19.03. 1:00 0.2 l/m2 in 6 Std. Regen
Mo, 18.03. 19:00 0.2 l/m2 in 12 Std. Regen
Mo, 18.03. 13:00 0.1 l/m2 in 6 Std. Regen
Mo, 18.03. 7:00 0.1 l/m2 in 12 Std. Regen
Mo, 18.03. 1:00 0.0 l/m2 in 6 Std. -
Ortszeit Niederschlagsmenge Niederschlagsart
Mi, 20.03. 0:30 0.0 l/m2 in 1 Std. -
Mi, 20.03. 0:20 keine Meldung -
Mi, 20.03. 0:10 keine Meldung -
Mi, 20.03. 0:00 0.0 l/m2 in 1 Std. -
Di, 19.03. 23:50 keine Meldung -
Di, 19.03. 23:40 keine Meldung -
Di, 19.03. 23:30 0.0 l/m2 in 1 Std. -
Di, 19.03. 23:00 0.0 l/m2 in 1 Std. -
Di, 19.03. 22:30 0.0 l/m2 in 1 Std. -
Di, 19.03. 22:00 0.0 l/m2 in 1 Std. -
Di, 19.03. 21:30 0.0 l/m2 in 1 Std. -
Ortszeit Stärke Spitze Richtung
km/h Bft. km/h Grad Sektor
Di, 19.03. 19:00 9 2 26 240° SW
Di, 19.03. 13:00 9 2 33 320° NW
Di, 19.03. 7:00 18 3 29 270° W
Di, 19.03. 1:00 18 3 40 280° W
Mo, 18.03. 19:00 20 4 76 320° NW
Mo, 18.03. 13:00 40 6 68 260° W
Mo, 18.03. 7:00 32 5 61 240° SW
Mo, 18.03. 1:00 31 5 50 220° SW
Ortszeit Stärke Spitze Richtung
km/h Bft. km/h Grad Sektor
Mi, 20.03. 0:30 4 1 4 210° SW
Mi, 20.03. 0:20 4 1 - 210° SW
Mi, 20.03. 0:10 4 1 - 190° S
Mi, 20.03. 0:00 4 1 7 230° SW
Di, 19.03. 23:50 4 1 - 230° SW
Di, 19.03. 23:40 4 1 - 210° SW
Di, 19.03. 23:30 6 1 6 180° S
Di, 19.03. 23:00 4 1 7 190° S
Di, 19.03. 22:30 4 1 7 180° S
Di, 19.03. 22:00 6 1 7 170° S
Di, 19.03. 21:30 4 1 4 170° S
Ortszeit Untergrenze Bedeckung Gattung
total tief tief mittel hoch
Di, 19.03. 19:00 - 0/8 0/8 - - -
Di, 19.03. 13:00 630 m 3/8 3/8 - - -
Di, 19.03. 7:00 360 m 8/8 8/8 - - -
Di, 19.03. 1:00 1800 m 8/8 8/8 - - -
Mo, 18.03. 19:00 570 m 7/8 7/8 - - -
Mo, 18.03. 13:00 660 m 8/8 8/8 - - -
Mo, 18.03. 7:00 600 m 7/8 7/8 - - -
Mo, 18.03. 1:00 930 m 2/8 2/8 - - -
Ortszeit Bedeckungsgrad in Achtel und Wolkenuntergrenze
Mi, 20.03. 0:30 2(8100m)
Mi, 20.03. 0:20 2(8100m)
Mi, 20.03. 0:10 2(8100m)
Mi, 20.03. 0:00 4(8100m)
Di, 19.03. 23:50 keine Wolken
Di, 19.03. 23:40 keine Wolken
Di, 19.03. 23:30 keine Wolken
Di, 19.03. 23:00 3(6600m)
Di, 19.03. 22:30 5(6600m)
Di, 19.03. 22:00 2(6300m)
Di, 19.03. 21:30 1(6300m)
Ortszeit Luftdruck NN (hPa) Tendenz (hPa in 3 Std.)
Di, 19.03. 19:00 1027 + 1,3
Di, 19.03. 13:00 1025 + 2,0
Di, 19.03. 7:00 1020 + 2,0
Di, 19.03. 1:00 1016 + 2,4
Mo, 18.03. 19:00 1011 + 4,1
Mo, 18.03. 13:00 1004 + 2,3
Mo, 18.03. 7:00 1000 + 0,6
Mo, 18.03. 1:00 1000 0,0
Ortszeit Luftdruck NN (hPa) Tendenz (hPa in 3 Std.)
Mi, 20.03. 0:30 1029 + 0,4
Mi, 20.03. 0:20 1029 keine Meldung
Mi, 20.03. 0:10 1029 keine Meldung
Mi, 20.03. 0:00 1029 + 0,6
Di, 19.03. 23:50 1029 keine Meldung
Di, 19.03. 23:40 1029 keine Meldung
Di, 19.03. 23:30 1029 + 1,0
Di, 19.03. 23:00 1030 + 1,6
Di, 19.03. 22:30 1029 + 1,8
Di, 19.03. 22:00 1029 + 1,9
Di, 19.03. 21:30 1029 + 2,1
Ortszeit Schneehöhe (cm)
Di, 19.03. 19:00 0
Di, 19.03. 13:00 0
Di, 19.03. 7:00 0
Di, 19.03. 1:00 0
Mo, 18.03. 19:00 0
Mo, 18.03. 13:00 0
Mo, 18.03. 7:00 0
Mo, 18.03. 1:00 0
Ortszeit Schneehöhe (cm)
Mi, 20.03. 0:30 0
Mi, 20.03. 0:20 0
Mi, 20.03. 0:10 0
Mi, 20.03. 0:00 0
Di, 19.03. 23:50 0
Di, 19.03. 23:40 0
Di, 19.03. 23:30 0
Di, 19.03. 23:00 0
Di, 19.03. 22:30 0
Di, 19.03. 22:00 0
Di, 19.03. 21:30 0
Link zu dieser Seite / Seite empfehlen

Das Wetter in ...